createdAt,value
2022-10-22T00:02:23.777Z,16
2022-10-22T00:07:35.770Z,16
2022-10-22T00:12:47.945Z,16
2022-10-22T00:17:59.919Z,16
2022-10-22T00:23:11.720Z,16
2022-10-22T00:28:23.754Z,16
2022-10-22T00:33:35.818Z,16
2022-10-22T00:38:48.274Z,16
2022-10-22T00:44:00.612Z,16
2022-10-22T00:49:12.823Z,15
2022-10-22T00:54:25.248Z,16
2022-10-22T00:59:37.838Z,16
2022-10-22T01:04:50.045Z,16
2022-10-22T01:10:02.143Z,16
2022-10-22T01:15:14.612Z,16
2022-10-22T01:20:26.873Z,16
2022-10-22T01:25:39.053Z,16
2022-10-22T01:30:51.569Z,16
2022-10-22T01:36:03.776Z,16
2022-10-22T01:41:16.023Z,16
2022-10-22T01:46:28.551Z,16
2022-10-22T01:51:40.908Z,16
2022-10-22T01:56:53.567Z,16
2022-10-22T02:02:05.817Z,16
2022-10-22T02:07:18.144Z,15
2022-10-22T02:12:30.519Z,16
2022-10-22T02:17:43.026Z,15
2022-10-22T02:22:55.634Z,16
2022-10-22T02:28:08.567Z,16
2022-10-22T02:33:21.193Z,16
2022-10-22T02:38:33.543Z,16
2022-10-22T02:43:46.128Z,16
2022-10-22T02:48:58.641Z,16
2022-10-22T02:54:10.847Z,16
2022-10-22T02:59:23.290Z,16
2022-10-22T03:04:35.782Z,16
2022-10-22T03:09:48.249Z,16
2022-10-22T03:15:00.606Z,16
2022-10-22T03:20:12.843Z,16
2022-10-22T03:25:25.044Z,16
2022-10-22T03:30:37.444Z,16
2022-10-22T03:35:49.899Z,16
2022-10-22T03:41:02.153Z,17
2022-10-22T03:46:14.589Z,17
2022-10-22T03:51:27.112Z,17
2022-10-22T03:56:39.480Z,17
2022-10-22T04:01:51.717Z,16
2022-10-22T04:07:04.032Z,16
2022-10-22T04:12:16.335Z,16
2022-10-22T04:17:28.503Z,16
2022-10-22T04:22:40.716Z,16
2022-10-22T04:27:53.046Z,16
2022-10-22T04:33:05.282Z,16
2022-10-22T04:38:17.733Z,16
2022-10-22T04:43:29.688Z,16
2022-10-22T04:48:41.861Z,16
2022-10-22T04:53:54.003Z,16
2022-10-22T04:59:06.158Z,16
2022-10-22T05:04:18.179Z,17
2022-10-22T05:09:30.343Z,17
2022-10-22T05:14:45.399Z,17
2022-10-22T05:19:57.860Z,17
2022-10-22T05:25:09.951Z,16
2022-10-22T05:30:21.977Z,16
2022-10-22T05:35:34.179Z,17
2022-10-22T05:40:46.229Z,17
2022-10-22T05:45:58.360Z,17
2022-10-22T05:51:10.550Z,17
2022-10-22T05:56:22.740Z,17
2022-10-22T06:01:35.048Z,17
2022-10-22T06:06:47.239Z,17
2022-10-22T06:11:59.833Z,17
2022-10-22T06:17:11.891Z,17
2022-10-22T06:22:24.139Z,17
2022-10-22T06:27:36.503Z,17
2022-10-22T06:32:48.620Z,17
2022-10-22T06:38:00.830Z,17
2022-10-22T06:43:13.084Z,18
2022-10-22T06:48:25.189Z,18
2022-10-22T06:53:37.300Z,18
2022-10-22T06:58:49.793Z,18
2022-10-22T07:04:02.188Z,18
2022-10-22T07:09:14.770Z,18
2022-10-22T07:14:27.172Z,18
2022-10-22T07:19:39.669Z,19
2022-10-22T07:24:52.132Z,19
2022-10-22T07:30:04.626Z,19
2022-10-22T07:35:16.799Z,19
2022-10-22T07:40:29.179Z,19
2022-10-22T07:45:41.534Z,19
2022-10-22T07:50:53.969Z,19
2022-10-22T07:56:06.283Z,20
2022-10-22T08:01:18.524Z,20
2022-10-22T08:06:30.780Z,20
2022-10-22T08:11:43.308Z,20
2022-10-22T08:16:55.972Z,20
2022-10-22T08:22:08.519Z,21
2022-10-22T08:27:20.991Z,21
2022-10-22T08:32:33.454Z,21
2022-10-22T08:37:45.732Z,21
2022-10-22T08:42:58.233Z,22
2022-10-22T08:48:10.791Z,22
2022-10-22T08:53:23.052Z,22
2022-10-22T09:03:45.616Z,22
2022-10-22T09:08:58.270Z,21
2022-10-22T09:14:10.743Z,22
2022-10-22T09:19:23.296Z,22
2022-10-22T09:24:35.703Z,22
2022-10-22T09:29:48.702Z,22
2022-10-22T09:35:01.096Z,22
2022-10-22T09:40:13.595Z,23
2022-10-22T09:45:26.041Z,23
2022-10-22T09:50:39.413Z,23
2022-10-22T10:01:34.213Z,23
2022-10-22T10:06:43.306Z,24
2022-10-22T10:11:55.872Z,24
2022-10-22T10:17:08.314Z,24
2022-10-22T10:22:21.087Z,24
2022-10-22T10:27:33.463Z,24
2022-10-22T10:32:47.012Z,24
2022-10-22T10:37:59.798Z,24
2022-10-22T10:43:18.403Z,24
2022-10-22T10:48:32.673Z,24
2022-10-22T10:53:45.726Z,25
2022-10-22T10:58:58.563Z,25
2022-10-22T11:04:11.392Z,25
2022-10-22T11:09:25.292Z,27
2022-10-22T11:14:39.152Z,28
2022-10-22T11:35:26.627Z,29
2022-10-22T11:40:39.155Z,29
2022-10-22T11:45:52.462Z,30
2022-10-22T12:01:27.031Z,29
2022-10-22T12:11:49.984Z,28
2022-10-22T12:17:02.811Z,29
2022-10-22T12:37:46.094Z,26
2022-10-22T12:42:58.517Z,26
2022-10-22T12:48:11.081Z,26
2022-10-22T12:53:23.516Z,26
2022-10-22T12:58:36.051Z,26
2022-10-22T13:24:32.566Z,25
2022-10-22T13:29:45.010Z,26
2022-10-22T13:40:11.685Z,25
2022-10-22T13:45:27.740Z,25
2022-10-22T13:50:40.302Z,25
2022-10-22T13:55:52.696Z,25
2022-10-22T14:01:05.109Z,25
2022-10-22T14:06:17.891Z,25
2022-10-22T14:11:30.255Z,25
2022-10-22T14:21:53.782Z,24
2022-10-22T14:27:06.276Z,25
2022-10-22T14:32:18.613Z,25
2022-10-22T14:37:31.181Z,25
2022-10-22T14:42:44.609Z,24
2022-10-22T14:47:56.791Z,25
2022-10-22T14:53:09.129Z,25
2022-10-22T14:58:21.617Z,24
2022-10-22T15:03:34.010Z,24
2022-10-22T15:08:46.598Z,24
2022-10-22T15:13:58.967Z,24
2022-10-22T15:19:12.021Z,24
2022-10-22T15:24:24.600Z,24
2022-10-22T15:29:37.206Z,24
2022-10-22T15:34:49.810Z,24
2022-10-22T15:40:02.211Z,24
2022-10-22T15:45:14.477Z,24
2022-10-22T15:50:26.800Z,24
2022-10-22T15:55:39.280Z,23
2022-10-22T16:00:51.823Z,23
2022-10-22T16:06:04.291Z,23
2022-10-22T16:11:16.851Z,23
2022-10-22T16:16:29.343Z,23
2022-10-22T16:21:41.570Z,23
2022-10-22T16:26:54.553Z,23
2022-10-22T16:32:07.147Z,23
2022-10-22T16:37:19.660Z,22
2022-10-22T16:42:31.966Z,22
2022-10-22T16:47:44.794Z,22
2022-10-22T16:52:56.824Z,22
2022-10-22T16:58:09.103Z,22
2022-10-22T17:03:28.596Z,22
2022-10-22T17:08:41.692Z,22
2022-10-22T17:13:53.862Z,22
2022-10-22T17:24:15.944Z,21
2022-10-22T17:29:28.171Z,21
2022-10-22T17:34:40.800Z,21
2022-10-22T17:39:53.355Z,21
2022-10-22T17:45:05.431Z,21
2022-10-22T17:50:17.660Z,20
2022-10-22T17:55:30.044Z,20
2022-10-22T18:00:42.448Z,20
2022-10-22T18:05:54.570Z,20
2022-10-22T18:11:06.757Z,20
2022-10-22T18:16:18.855Z,20
2022-10-22T18:21:31.091Z,20
2022-10-22T18:26:43.487Z,19
2022-10-22T18:31:55.647Z,20
2022-10-22T18:37:07.880Z,19
2022-10-22T18:42:20.352Z,19
2022-10-22T18:47:32.440Z,19
2022-10-22T18:52:45.260Z,19
2022-10-22T18:57:57.256Z,19
2022-10-22T19:03:09.361Z,19
2022-10-22T19:08:21.500Z,19
2022-10-22T19:13:33.757Z,19
2022-10-22T19:18:45.972Z,19
2022-10-22T19:23:58.170Z,19
2022-10-22T19:29:10.516Z,19
2022-10-22T19:34:22.671Z,19
2022-10-22T19:39:34.870Z,19
2022-10-22T19:44:46.916Z,19
2022-10-22T19:49:59.222Z,19
2022-10-22T19:55:11.593Z,19
2022-10-22T20:00:23.854Z,19
2022-10-22T20:05:36.291Z,19
2022-10-22T20:10:48.362Z,19
2022-10-22T20:16:00.698Z,19
2022-10-22T20:21:13.129Z,19
2022-10-22T20:26:25.391Z,19
2022-10-22T20:31:37.735Z,19
2022-10-22T20:36:50.120Z,19
2022-10-22T20:42:02.293Z,18
2022-10-22T20:47:14.669Z,18
2022-10-22T20:52:26.953Z,18
2022-10-22T20:57:40.147Z,18
2022-10-22T21:02:52.902Z,18
2022-10-22T21:08:05.123Z,18
2022-10-22T21:13:17.374Z,18
2022-10-22T21:18:29.729Z,18
2022-10-22T21:23:41.872Z,18
2022-10-22T21:28:54.315Z,18
2022-10-22T21:34:06.620Z,18
2022-10-22T21:39:22.008Z,18
2022-10-22T21:44:33.355Z,18
2022-10-22T21:49:45.578Z,18
2022-10-22T21:54:57.735Z,18
2022-10-22T22:00:09.973Z,18
2022-10-22T22:05:22.278Z,17
2022-10-22T22:10:34.554Z,17
2022-10-22T22:15:46.864Z,17
2022-10-22T22:20:59.268Z,17
2022-10-22T22:26:11.363Z,17
2022-10-22T22:31:23.613Z,17
2022-10-22T22:36:36.034Z,17
2022-10-22T22:41:48.223Z,17
2022-10-22T22:47:00.383Z,17
2022-10-22T22:52:12.905Z,17
2022-10-22T22:57:25.164Z,17
2022-10-22T23:02:37.516Z,17
2022-10-22T23:07:49.707Z,17
2022-10-22T23:13:02.023Z,17
2022-10-22T23:18:14.325Z,17
2022-10-22T23:23:26.729Z,17
2022-10-22T23:28:38.957Z,17
2022-10-22T23:33:51.043Z,17
2022-10-22T23:39:03.270Z,16
2022-10-22T23:44:15.564Z,17
2022-10-22T23:49:27.672Z,17
2022-10-22T23:54:40.020Z,17
2022-10-22T23:59:52.235Z,17
